Time;durP1;ratioP1;P1;durP2;ratioP2;P2;SDS_P1;SDS_P2;PMS_P1;PMS_P2;Temp;Humidity;BMP_temperature;BMP_pressure;BME280_temperature;BME280_humidity;BME280_pressure;Samples;Min_cycle;Max_cycle;Signal;HPM_P1;HPM_P2
2023/06/16 00:01:20;;;;;;;8.57;5.18;;;;;;;;;;5096516;28;20047;-65
2023/06/16 00:03:49;;;;;;;9.80;4.90;;;;;;;;;;5105967;28;20475;-65
2023/06/16 00:06:15;;;;;;;7.15;4.43;;;;;;;;;;5116893;28;20078;-65
2023/06/16 00:08:44;;;;;;;8.70;4.78;;;;;;;;;;5116681;28;20024;-65
2023/06/16 00:11:14;;;;;;;8.30;5.38;;;;;;;;;;5116753;28;20055;-65
2023/06/16 00:13:40;;;;;;;11.73;5.00;;;;;;;;;;5116541;28;20035;-65
2023/06/16 00:16:06;;;;;;;9.45;4.90;;;;;;;;;;5116602;28;20027;-65
2023/06/16 00:18:31;;;;;;;7.35;4.90;;;;;;;;;;5116592;28;20447;-64
2023/06/16 00:21:00;;;;;;;9.73;4.95;;;;;;;;;;5116480;28;20493;-65
2023/06/16 00:23:26;;;;;;;8.25;4.97;;;;;;;;;;5116484;28;20032;-64
2023/06/16 00:25:52;;;;;;;10.95;5.15;;;;;;;;;;5116339;28;20079;-65
2023/06/16 00:28:17;;;;;;;7.93;5.45;;;;;;;;;;5116079;27;20028;-65
2023/06/16 00:30:43;;;;;;;9.25;5.68;;;;;;;;;;5116343;28;20032;-65
2023/06/16 00:33:10;;;;;;;7.55;5.45;;;;;;;;;;5116253;28;20035;-65
2023/06/16 00:35:35;;;;;;;8.57;5.50;;;;;;;;;;5116219;28;20073;-65
2023/06/16 00:38:01;;;;;;;8.10;5.60;;;;;;;;;;5104371;28;20036;-65
2023/06/16 00:40:26;;;;;;;9.18;5.28;;;;;;;;;;5096068;28;20024;-65
2023/06/16 00:42:53;;;;;;;7.47;5.18;;;;;;;;;;5095488;28;20044;-65
2023/06/16 00:45:19;;;;;;;7.72;5.88;;;;;;;;;;5095528;28;20051;-66
2023/06/16 00:47:44;;;;;;;7.78;5.53;;;;;;;;;;5095617;28;20490;-66
2023/06/16 00:50:11;;;;;;;11.30;6.00;;;;;;;;;;5095647;28;20040;-65
2023/06/16 00:52:38;;;;;;;9.25;5.53;;;;;;;;;;5095567;28;20111;-64
2023/06/16 00:55:08;;;;;;;11.98;6.15;;;;;;;;;;5095342;28;20058;-64
2023/06/16 00:57:34;;;;;;;16.27;5.75;;;;;;;;;;5095140;28;20028;-64
2023/06/16 01:00:00;;;;;;;7.47;5.90;;;;;;;;;;5095383;28;20115;-65
2023/06/16 01:02:26;;;;;;;10.30;6.95;;;;;;;;;;5095446;28;20056;-65
2023/06/16 01:04:53;;;;;;;9.57;6.90;;;;;;;;;;5113897;28;20024;-65
2023/06/16 01:07:33;;;;;;;7.57;6.03;;;;;;;;;;5115721;28;20404;-65
2023/06/16 01:10:07;;;;;;;9.18;6.13;;;;;;;;;;5115566;28;20418;-65
2023/06/16 01:13:10;;;;;;;9.85;6.30;;;;;;;;;;5115381;28;20032;-65
2023/06/16 01:15:37;;;;;;;9.82;6.43;;;;;;;;;;5115324;28;20541;-65
2023/06/16 01:18:04;;;;;;;11.70;6.60;;;;;;;;;;5115514;28;20027;-64
2023/06/16 01:20:42;;;;;;;11.23;6.70;;;;;;;;;;5115439;28;20481;-65
2023/06/16 01:23:29;;;;;;;11.73;6.78;;;;;;;;;;5115370;28;20038;-65
2023/06/16 01:25:58;;;;;;;9.10;6.40;;;;;;;;;;5114969;28;20027;-65
2023/06/16 01:28:25;;;;;;;13.40;7.70;;;;;;;;;;5115149;28;20020;-65
2023/06/16 01:30:52;;;;;;;9.50;6.18;;;;;;;;;;5115191;28;20028;-65
2023/06/16 01:33:20;;;;;;;10.75;6.80;;;;;;;;;;5115128;27;20051;-65
2023/06/16 01:35:47;;;;;;;9.18;5.95;;;;;;;;;;5115106;28;20090;-64
2023/06/16 01:38:14;;;;;;;8.70;6.20;;;;;;;;;;5101587;28;20082;-64
2023/06/16 01:40:41;;;;;;;11.38;6.97;;;;;;;;;;5094152;28;20039;-65
2023/06/16 01:43:07;;;;;;;14.70;6.30;;;;;;;;;;5094586;28;20032;-64
2023/06/16 01:45:34;;;;;;;11.43;6.22;;;;;;;;;;5094492;28;20389;-64
2023/06/16 01:48:00;;;;;;;9.13;6.47;;;;;;;;;;5094178;28;20051;-64
2023/06/16 01:50:26;;;;;;;9.32;6.80;;;;;;;;;;5094451;28;20058;-65
2023/06/16 01:52:51;;;;;;;9.20;6.85;;;;;;;;;;5094473;28;20028;-65
2023/06/16 01:55:17;;;;;;;9.52;6.88;;;;;;;;;;5094133;28;20032;-65
2023/06/16 01:57:42;;;;;;;10.52;6.95;;;;;;;;;;5094232;28;20020;-63
2023/06/16 02:00:14;;;;;;;12.75;6.72;;;;;;;;;;5092945;28;20081;-64
2023/06/16 02:02:45;;;;;;;9.85;6.90;;;;;;;;;;5093016;28;20115;-67
2023/06/16 02:05:12;;;;;;;9.98;7.03;;;;;;;;;;5114297;28;20028;-65
2023/06/16 02:07:44;;;;;;;9.93;6.45;;;;;;;;;;5114223;28;20046;-64
2023/06/16 02:10:11;;;;;;;10.45;7.30;;;;;;;;;;5114242;28;20469;-64
2023/06/16 02:12:37;;;;;;;12.45;7.88;;;;;;;;;;5114460;28;20031;-64
2023/06/16 02:15:03;;;;;;;10.90;7.05;;;;;;;;;;5114204;28;20066;-64
2023/06/16 02:17:29;;;;;;;8.85;7.03;;;;;;;;;;5113612;28;20059;-64
2023/06/16 02:19:55;;;;;;;13.30;7.00;;;;;;;;;;5114062;28;20034;-64
2023/06/16 02:22:21;;;;;;;7.47;6.45;;;;;;;;;;5114041;28;20020;-64
2023/06/16 02:24:47;;;;;;;12.27;6.95;;;;;;;;;;5113704;28;20024;-63
2023/06/16 02:27:13;;;;;;;9.63;6.85;;;;;;;;;;5113923;28;20118;-65
2023/06/16 02:29:40;;;;;;;12.32;6.60;;;;;;;;;;5113946;28;20066;-64
2023/06/16 02:32:06;;;;;;;10.38;6.57;;;;;;;;;;5113935;28;20034;-65
2023/06/16 02:34:32;;;;;;;9.02;6.80;;;;;;;;;;5113802;28;20027;-64
2023/06/16 02:36:58;;;;;;;10.75;6.68;;;;;;;;;;5111203;28;20064;-64
2023/06/16 02:39:23;;;;;;;6.55;5.57;;;;;;;;;;5093712;28;20052;-64
2023/06/16 02:41:49;;;;;;;12.35;6.22;;;;;;;;;;5093366;28;20064;-64
2023/06/16 02:44:15;;;;;;;8.25;6.53;;;;;;;;;;5093417;28;20028;-64
2023/06/16 02:46:40;;;;;;;9.50;6.72;;;;;;;;;;5093319;28;20053;-63
2023/06/16 02:49:06;;;;;;;9.73;7.20;;;;;;;;;;5093140;28;20047;-63
2023/06/16 02:51:31;;;;;;;8.63;6.43;;;;;;;;;;5093452;28;20036;-63
2023/06/16 02:54:00;;;;;;;10.00;7.22;;;;;;;;;;5093198;28;20117;-63
2023/06/16 02:56:28;;;;;;;9.00;7.05;;;;;;;;;;5093047;28;20478;-63
2023/06/16 02:58:53;;;;;;;9.88;6.97;;;;;;;;;;5093152;28;20111;-63
2023/06/16 03:01:21;;;;;;;11.00;8.30;;;;;;;;;;5093168;28;20136;-63
2023/06/16 03:03:47;;;;;;;12.32;9.07;;;;;;;;;;5102401;28;20031;-63
2023/06/16 03:06:14;;;;;;;12.35;8.75;;;;;;;;;;5113381;28;20042;-64
2023/06/16 03:08:39;;;;;;;11.90;8.77;;;;;;;;;;5113005;28;20465;-63
2023/06/16 03:11:05;;;;;;;11.18;8.27;;;;;;;;;;5113315;28;20034;-63
2023/06/16 03:13:30;;;;;;;9.00;7.57;;;;;;;;;;5113315;28;20019;-63
2023/06/16 03:15:56;;;;;;;8.35;7.20;;;;;;;;;;5113375;28;20102;-65
2023/06/16 03:18:21;;;;;;;9.18;6.68;;;;;;;;;;5113289;28;20023;-65
2023/06/16 03:20:47;;;;;;;8.90;6.63;;;;;;;;;;5113178;28;20032;-64
2023/06/16 03:23:13;;;;;;;13.57;8.95;;;;;;;;;;5113137;28;20016;-63
2023/06/16 03:25:38;;;;;;;12.15;8.63;;;;;;;;;;5113084;28;20072;-63
2023/06/16 03:28:07;;;;;;;11.07;7.53;;;;;;;;;;5112287;28;20023;-63
2023/06/16 03:30:33;;;;;;;10.18;7.72;;;;;;;;;;5112871;28;20027;-63
2023/06/16 03:32:58;;;;;;;12.63;8.25;;;;;;;;;;5113101;28;20388;-63
2023/06/16 03:35:23;;;;;;;12.40;8.30;;;;;;;;;;5112754;28;20027;-63
2023/06/16 03:37:49;;;;;;;15.93;8.13;;;;;;;;;;5103012;28;20031;-63
2023/06/16 03:40:14;;;;;;;16.38;11.13;;;;;;;;;;5092997;28;20512;-63
2023/06/16 03:42:40;;;;;;;14.95;9.00;;;;;;;;;;5092472;28;20020;-63
2023/06/16 03:45:06;;;;;;;9.52;6.25;;;;;;;;;;5092680;28;20032;-64
2023/06/16 03:47:32;;;;;;;11.93;7.15;;;;;;;;;;5092518;28;20405;-63
2023/06/16 03:49:58;;;;;;;9.63;6.50;;;;;;;;;;5092446;28;20039;-64
2023/06/16 03:52:24;;;;;;;12.48;6.93;;;;;;;;;;5092648;28;20024;-63
2023/06/16 03:54:49;;;;;;;8.07;6.45;;;;;;;;;;5092575;28;20024;-64
2023/06/16 03:57:16;;;;;;;9.95;6.63;;;;;;;;;;5092355;28;20526;-63
2023/06/16 03:59:41;;;;;;;8.60;6.30;;;;;;;;;;5092616;28;20024;-64
2023/06/16 04:02:07;;;;;;;8.70;6.03;;;;;;;;;;5092767;28;20326;-63
2023/06/16 04:04:36;;;;;;;7.65;5.97;;;;;;;;;;5108090;28;20059;-63
2023/06/16 04:07:09;;;;;;;8.85;5.97;;;;;;;;;;5106409;28;20051;-63
2023/06/16 04:09:34;;;;;;;8.48;5.53;;;;;;;;;;5092266;28;20028;-63
2023/06/16 04:12:00;;;;;;;7.35;5.88;;;;;;;;;;5092470;28;20081;-63
2023/06/16 04:14:25;;;;;;;7.47;6.00;;;;;;;;;;5092401;28;20024;-63
2023/06/16 04:16:51;;;;;;;9.10;7.20;;;;;;;;;;5092437;28;20029;-63
2023/06/16 04:19:19;;;;;;;8.13;6.10;;;;;;;;;;5092225;28;20422;-63
2023/06/16 04:21:45;;;;;;;9.63;5.53;;;;;;;;;;5092295;28;20025;-63
2023/06/16 04:24:10;;;;;;;9.23;6.68;;;;;;;;;;5092455;28;20027;-63
2023/06/16 04:26:37;;;;;;;7.90;6.50;;;;;;;;;;5092237;28;20012;-64
2023/06/16 04:29:06;;;;;;;9.57;6.78;;;;;;;;;;5092305;28;20023;-65
2023/06/16 04:31:32;;;;;;;7.07;6.25;;;;;;;;;;5092508;28;20051;-64
2023/06/16 04:33:59;;;;;;;9.25;6.20;;;;;;;;;;5092011;28;20458;-64
2023/06/16 04:36:29;;;;;;;8.68;6.80;;;;;;;;;;5092154;28;20024;-64
2023/06/16 04:38:55;;;;;;;6.40;5.70;;;;;;;;;;5092505;28;20031;-64
2023/06/16 04:41:20;;;;;;;7.97;5.80;;;;;;;;;;5095133;28;20077;-66
2023/06/16 04:43:46;;;;;;;7.13;5.85;;;;;;;;;;5094429;28;20426;-65
2023/06/16 04:46:11;;;;;;;6.30;5.47;;;;;;;;;;5095845;28;20023;-64
2023/06/16 04:48:37;;;;;;;11.35;5.38;;;;;;;;;;5094084;28;20050;-65
2023/06/16 04:51:03;;;;;;;7.47;5.22;;;;;;;;;;5095790;28;20027;-65
2023/06/16 04:53:28;;;;;;;6.88;4.80;;;;;;;;;;5095780;28;20419;-65
2023/06/16 04:55:54;;;;;;;6.90;5.15;;;;;;;;;;5095553;28;20500;-65
2023/06/16 04:58:20;;;;;;;5.03;4.53;;;;;;;;;;5095578;28;20119;-65
2023/06/16 05:00:46;;;;;;;7.63;5.68;;;;;;;;;;5095470;28;20020;-65
2023/06/16 05:03:11;;;;;;;7.03;5.47;;;;;;;;;;5091587;28;20020;-63
2023/06/16 05:05:37;;;;;;;6.93;5.85;;;;;;;;;;5092211;28;20024;-62
2023/06/16 05:08:03;;;;;;;7.50;6.07;;;;;;;;;;5087469;28;20370;-62
2023/06/16 05:10:28;;;;;;;8.05;5.93;;;;;;;;;;5093721;28;20032;-62
2023/06/16 05:12:54;;;;;;;10.55;9.43;;;;;;;;;;5095164;28;20469;-63
2023/06/16 05:15:20;;;;;;;10.50;7.90;;;;;;;;;;5101702;28;20032;-62
2023/06/16 05:17:45;;;;;;;8.05;6.90;;;;;;;;;;5111549;28;20537;-63
2023/06/16 05:20:11;;;;;;;11.73;7.10;;;;;;;;;;5094938;28;20097;-62
2023/06/16 05:22:36;;;;;;;8.00;6.70;;;;;;;;;;5102963;28;20123;-63
2023/06/16 05:25:02;;;;;;;10.52;7.55;;;;;;;;;;5114848;27;20084;-63
2023/06/16 05:27:27;;;;;;;11.07;6.78;;;;;;;;;;5102567;28;20046;-62
2023/06/16 05:29:54;;;;;;;8.80;6.25;;;;;;;;;;5094506;28;20496;-63
2023/06/16 05:32:21;;;;;;;8.65;6.65;;;;;;;;;;5112599;28;20031;-63
2023/06/16 05:34:49;;;;;;;11.43;6.20;;;;;;;;;;5114948;28;20024;-64
2023/06/16 05:37:15;;;;;;;10.05;7.80;;;;;;;;;;5109480;28;20020;-64
2023/06/16 05:39:45;;;;;;;11.90;8.45;;;;;;;;;;5094377;28;20020;-64
2023/06/16 05:42:13;;;;;;;12.43;8.68;;;;;;;;;;5094254;28;20036;-64
2023/06/16 05:44:38;;;;;;;13.48;8.90;;;;;;;;;;5093929;28;20028;-65
2023/06/16 05:47:04;;;;;;;10.18;6.72;;;;;;;;;;5093828;28;20024;-64
2023/06/16 05:49:30;;;;;;;11.48;8.43;;;;;;;;;;5113419;28;20036;-64
2023/06/16 05:51:57;;;;;;;11.07;8.98;;;;;;;;;;5113808;27;20373;-65
2023/06/16 05:54:23;;;;;;;13.48;9.18;;;;;;;;;;5114423;28;20169;-64
2023/06/16 05:56:48;;;;;;;13.80;9.82;;;;;;;;;;5114506;28;20490;-64
2023/06/16 05:59:14;;;;;;;14.65;9.40;;;;;;;;;;5114332;28;20381;-64
2023/06/16 06:01:39;;;;;;;12.40;9.30;;;;;;;;;;5114159;28;20054;-64
2023/06/16 06:04:05;;;;;;;12.13;9.00;;;;;;;;;;5101188;28;20039;-64
2023/06/16 06:06:30;;;;;;;13.68;9.80;;;;;;;;;;5093726;28;20050;-64
2023/06/16 06:08:56;;;;;;;14.15;9.60;;;;;;;;;;5093658;28;20035;-64
2023/06/16 06:11:21;;;;;;;10.02;7.78;;;;;;;;;;5093868;28;20024;-64
2023/06/16 06:13:47;;;;;;;11.15;6.97;;;;;;;;;;5093534;28;20024;-64
2023/06/16 06:16:13;;;;;;;8.68;6.53;;;;;;;;;;5093263;28;20062;-64
2023/06/16 06:18:38;;;;;;;8.45;6.63;;;;;;;;;;5093571;28;20052;-64
2023/06/16 06:21:04;;;;;;;7.82;6.03;;;;;;;;;;5093018;28;20482;-64
2023/06/16 06:23:30;;;;;;;9.35;6.47;;;;;;;;;;5101843;28;20024;-64
2023/06/16 06:25:55;;;;;;;8.00;6.18;;;;;;;;;;5093514;28;20079;-64
2023/06/16 06:28:23;;;;;;;6.53;5.22;;;;;;;;;;5093163;28;20470;-65
2023/06/16 06:30:48;;;;;;;8.70;5.30;;;;;;;;;;5093266;28;20082;-65
2023/06/16 06:33:14;;;;;;;6.07;4.43;;;;;;;;;;5093397;28;20040;-65
2023/06/16 06:35:39;;;;;;;6.78;5.00;;;;;;;;;;5093395;28;20068;-65
2023/06/16 06:38:05;;;;;;;6.70;5.45;;;;;;;;;;5092954;28;20481;-65
2023/06/16 06:40:31;;;;;;;6.68;4.40;;;;;;;;;;5093629;28;20032;-65
2023/06/16 06:42:57;;;;;;;7.10;4.38;;;;;;;;;;5093228;28;20100;-65
2023/06/16 06:45:22;;;;;;;6.38;4.40;;;;;;;;;;5092906;28;20114;-65
2023/06/16 06:47:48;;;;;;;6.07;3.97;;;;;;;;;;5093022;28;20043;-65
2023/06/16 06:50:13;;;;;;;6.00;3.95;;;;;;;;;;5093091;28;20063;-65
2023/06/16 06:52:39;;;;;;;5.25;3.50;;;;;;;;;;5092989;28;20063;-65
2023/06/16 06:55:06;;;;;;;4.63;3.20;;;;;;;;;;5091705;28;20043;-65
2023/06/16 06:57:31;;;;;;;3.92;3.20;;;;;;;;;;5093147;28;20020;-65
2023/06/16 06:59:57;;;;;;;6.78;3.30;;;;;;;;;;5092944;28;20474;-65
2023/06/16 07:02:22;;;;;;;4.40;2.88;;;;;;;;;;5092782;28;20023;-65
2023/06/16 07:04:48;;;;;;;4.20;3.13;;;;;;;;;;5111029;28;20043;-66
2023/06/16 07:07:13;;;;;;;5.18;3.30;;;;;;;;;;5113112;28;20434;-65
2023/06/16 07:09:39;;;;;;;6.95;3.35;;;;;;;;;;5113155;28;20027;-66
2023/06/16 07:12:05;;;;;;;5.53;2.90;;;;;;;;;;5113267;28;20027;-65
2023/06/16 07:14:30;;;;;;;6.80;2.88;;;;;;;;;;5112958;28;20457;-65
2023/06/16 07:16:57;;;;;;;6.60;3.17;;;;;;;;;;5113478;28;20034;-66
2023/06/16 07:19:26;;;;;;;6.47;3.30;;;;;;;;;;5111923;28;20016;-65
2023/06/16 07:21:54;;;;;;;7.38;3.53;;;;;;;;;;5096852;28;20015;-65
2023/06/16 07:24:21;;;;;;;7.55;3.90;;;;;;;;;;5112985;28;20024;-66
2023/06/16 07:26:46;;;;;;;5.55;4.28;;;;;;;;;;5112951;28;20480;-65
2023/06/16 07:29:12;;;;;;;6.90;4.30;;;;;;;;;;5106311;28;20035;-65
2023/06/16 07:31:37;;;;;;;9.20;4.63;;;;;;;;;;5092578;28;20157;-67
2023/06/16 07:34:03;;;;;;;6.78;4.40;;;;;;;;;;5092375;28;20077;-64
2023/06/16 07:36:31;;;;;;;6.88;4.93;;;;;;;;;;5092247;28;20115;-64
2023/06/16 07:38:56;;;;;;;7.57;4.82;;;;;;;;;;5092676;28;20024;-64
2023/06/16 07:41:22;;;;;;;8.93;5.88;;;;;;;;;;5092362;28;20058;-64
2023/06/16 07:43:48;;;;;;;8.43;5.60;;;;;;;;;;5092195;28;20029;-65
2023/06/16 07:46:14;;;;;;;10.73;5.43;;;;;;;;;;5092052;28;20035;-64
2023/06/16 07:48:40;;;;;;;8.82;5.30;;;;;;;;;;5091956;28;20417;-64
2023/06/16 07:51:06;;;;;;;6.15;4.47;;;;;;;;;;5092332;28;20032;-65
2023/06/16 07:53:31;;;;;;;10.02;5.00;;;;;;;;;;5092496;28;20095;-67
2023/06/16 07:55:57;;;;;;;9.30;5.15;;;;;;;;;;5092447;28;20103;-65
2023/06/16 07:58:22;;;;;;;9.43;5.13;;;;;;;;;;5092131;28;20031;-65
2023/06/16 08:00:51;;;;;;;12.85;5.05;;;;;;;;;;5092349;28;20027;-65
2023/06/16 08:03:18;;;;;;;9.13;5.80;;;;;;;;;;5092101;28;20012;-65
2023/06/16 08:05:43;;;;;;;6.05;4.90;;;;;;;;;;5092199;28;20020;-65
2023/06/16 08:08:08;;;;;;;6.82;5.32;;;;;;;;;;5092193;28;20035;-65
2023/06/16 08:10:34;;;;;;;9.55;5.35;;;;;;;;;;5091826;28;20043;-67
2023/06/16 08:13:00;;;;;;;8.15;4.78;;;;;;;;;;5092035;28;20036;-64
2023/06/16 08:15:25;;;;;;;11.35;5.38;;;;;;;;;;5094026;28;20058;-64
2023/06/16 08:17:51;;;;;;;8.80;4.45;;;;;;;;;;5096035;28;20025;-65
2023/06/16 08:20:17;;;;;;;17.15;5.10;;;;;;;;;;5095906;28;20039;-66
2023/06/16 08:22:42;;;;;;;11.63;4.65;;;;;;;;;;5107361;28;20028;-66
2023/06/16 08:25:08;;;;;;;9.52;5.00;;;;;;;;;;5116334;28;20055;-66
2023/06/16 08:27:33;;;;;;;11.43;5.28;;;;;;;;;;5116190;28;20016;-66
2023/06/16 08:30:00;;;;;;;8.35;5.03;;;;;;;;;;5103487;28;20034;-64
2023/06/16 08:32:25;;;;;;;8.18;5.70;;;;;;;;;;5094428;28;20389;-65
2023/06/16 08:34:51;;;;;;;7.30;5.18;;;;;;;;;;5095804;28;20020;-65
2023/06/16 08:37:16;;;;;;;8.18;5.68;;;;;;;;;;5095714;28;20016;-65
2023/06/16 08:39:43;;;;;;;11.80;5.15;;;;;;;;;;5096347;28;20024;-65
2023/06/16 08:42:11;;;;;;;8.15;5.45;;;;;;;;;;5095357;28;20059;-65
2023/06/16 08:44:38;;;;;;;8.57;5.13;;;;;;;;;;5095406;28;20400;-65
2023/06/16 08:47:05;;;;;;;7.30;5.20;;;;;;;;;;5095305;28;20067;-65
2023/06/16 08:49:31;;;;;;;6.13;4.45;;;;;;;;;;5095595;28;20067;-65
2023/06/16 08:52:01;;;;;;;6.15;4.40;;;;;;;;;;5095406;28;20377;-65
2023/06/16 08:54:31;;;;;;;9.07;4.47;;;;;;;;;;5094968;28;20034;-64
2023/06/16 08:57:01;;;;;;;5.38;4.10;;;;;;;;;;5095340;28;20393;-65
2023/06/16 08:59:28;;;;;;;;;;;;;;;;;;5095568;28;20414;-64
2023/06/16 09:01:54;;;;;;;6.38;4.18;;;;;;;;;;5095300;28;19912;-65
2023/06/16 09:04:19;;;;;;;7.35;4.28;;;;;;;;;;5094650;28;20429;-64
2023/06/16 09:06:47;;;;;;;5.43;3.88;;;;;;;;;;5095028;28;20024;-64
2023/06/16 09:09:13;;;;;;;7.55;4.70;;;;;;;;;;5094731;28;20476;-64
2023/06/16 09:11:39;;;;;;;6.38;3.95;;;;;;;;;;5095012;28;20055;-64
2023/06/16 09:14:12;;;;;;;5.85;3.80;;;;;;;;;;5094873;28;20469;-64
2023/06/16 09:16:39;;;;;;;5.75;4.00;;;;;;;;;;5094801;28;20094;-64
2023/06/16 09:19:08;;;;;;;4.78;3.28;;;;;;;;;;5094867;28;20034;-64
2023/06/16 09:21:34;;;;;;;5.63;3.30;;;;;;;;;;5096429;28;20049;-64
2023/06/16 09:24:00;;;;;;;6.70;4.38;;;;;;;;;;5114584;28;20467;-64
2023/06/16 09:26:30;;;;;;;5.15;4.15;;;;;;;;;;5113623;28;20055;-64
2023/06/16 09:28:56;;;;;;;8.55;4.00;;;;;;;;;;5111055;28;20066;-64
2023/06/16 09:31:23;;;;;;;5.30;3.60;;;;;;;;;;5094470;28;20031;-64
2023/06/16 09:33:48;;;;;;;4.38;3.65;;;;;;;;;;5094385;28;20024;-64
2023/06/16 09:36:26;;;;;;;6.10;3.83;;;;;;;;;;5094281;28;20032;-64
2023/06/16 09:38:51;;;;;;;5.22;3.97;;;;;;;;;;5094484;28;20028;-64
2023/06/16 09:41:18;;;;;;;6.38;3.83;;;;;;;;;;5094395;28;20072;-65
2023/06/16 09:43:44;;;;;;;6.00;4.43;;;;;;;;;;5094287;28;20469;-64
2023/06/16 09:46:14;;;;;;;5.55;4.32;;;;;;;;;;5094321;28;20028;-64
2023/06/16 09:48:50;;;;;;;4.90;3.90;;;;;;;;;;5093779;28;20351;-63
2023/06/16 09:51:25;;;;;;;6.00;4.15;;;;;;;;;;5094178;28;20115;-64
2023/06/16 09:53:53;;;;;;;7.68;4.75;;;;;;;;;;5093743;28;20599;-65
2023/06/16 09:56:19;;;;;;;5.68;4.35;;;;;;;;;;5093800;28;20402;-64
2023/06/16 09:58:46;;;;;;;7.35;5.07;;;;;;;;;;5093940;28;20032;-64
2023/06/16 10:01:15;;;;;;;7.97;5.60;;;;;;;;;;5094160;28;20248;-65
2023/06/16 10:03:43;;;;;;;5.80;4.40;;;;;;;;;;5093998;28;20492;-64
2023/06/16 10:06:19;;;;;;;7.40;4.38;;;;;;;;;;5093812;28;20028;-64
2023/06/16 10:08:47;;;;;;;6.68;4.75;;;;;;;;;;5093697;28;20032;-64
2023/06/16 10:11:16;;;;;;;7.72;5.20;;;;;;;;;;5093727;28;20492;-65
2023/06/16 10:13:53;;;;;;;6.38;4.93;;;;;;;;;;5092598;28;20099;-65
2023/06/16 10:16:23;;;;;;;5.90;4.57;;;;;;;;;;5093687;28;20055;-65
2023/06/16 10:18:51;;;;;;;7.63;4.60;;;;;;;;;;5093789;28;20032;-67
2023/06/16 10:21:18;;;;;;;6.20;4.50;;;;;;;;;;5093388;28;20040;-67
2023/06/16 10:23:44;;;;;;;9.75;4.75;;;;;;;;;;5113389;28;20031;-64
2023/06/16 10:26:12;;;;;;;7.75;5.00;;;;;;;;;;5113681;28;20533;-64
2023/06/16 10:28:37;;;;;;;7.28;4.40;;;;;;;;;;5112576;28;20039;-64
2023/06/16 10:31:04;;;;;;;7.80;4.97;;;;;;;;;;5093367;28;20131;-66
2023/06/16 10:33:52;;;;;;;5.50;4.20;;;;;;;;;;5093716;28;20039;-66
2023/06/16 10:36:21;;;;;;;6.07;4.70;;;;;;;;;;5091715;28;20119;-64
2023/06/16 10:38:56;;;;;;;6.38;4.70;;;;;;;;;;5093155;28;20039;-65
2023/06/16 10:41:21;;;;;;;7.63;4.95;;;;;;;;;;5093297;28;20027;-65
2023/06/16 10:43:47;;;;;;;6.15;5.18;;;;;;;;;;5093304;28;20346;-67
2023/06/16 10:46:17;;;;;;;7.47;5.32;;;;;;;;;;5093252;28;20039;-66
2023/06/16 10:49:01;;;;;;;17.67;12.15;;;;;;;;;;5092902;28;20055;-66
2023/06/16 10:51:43;;;;;;;12.73;8.15;;;;;;;;;;5093071;28;20040;-66
2023/06/16 10:54:09;;;;;;;8.52;6.40;;;;;;;;;;5093016;28;20380;-66
2023/06/16 10:56:59;;;;;;;7.28;4.90;;;;;;;;;;5092971;28;20024;-66
2023/06/16 10:59:25;;;;;;;;;;;;;;;;;;5093661;28;20020;-65
2023/06/16 11:01:56;;;;;;;10.05;6.43;;;;;;;;;;5092719;28;20015;-64
2023/06/16 11:04:21;;;;;;;6.22;5.22;;;;;;;;;;5091171;28;20376;-64
2023/06/16 11:07:13;;;;;;;7.55;5.93;;;;;;;;;;5092646;28;20107;-64
2023/06/16 11:09:38;;;;;;;7.32;5.28;;;;;;;;;;5088798;28;20513;-64
2023/06/16 11:12:05;;;;;;;5.10;4.00;;;;;;;;;;5092807;28;20058;-64
2023/06/16 11:14:32;;;;;;;7.50;4.75;;;;;;;;;;5092489;28;20031;-64
2023/06/16 11:16:58;;;;;;;8.95;4.90;;;;;;;;;;5092619;28;20090;-64
2023/06/16 11:19:23;;;;;;;7.60;4.22;;;;;;;;;;5092337;28;20028;-64
2023/06/16 11:21:48;;;;;;;7.00;4.63;;;;;;;;;;5096324;28;20028;-64
2023/06/16 11:24:14;;;;;;;6.40;4.90;;;;;;;;;;5112647;28;20027;-64
2023/06/16 11:26:41;;;;;;;8.13;5.85;;;;;;;;;;5112726;28;20031;-64
2023/06/16 11:29:07;;;;;;;7.35;5.28;;;;;;;;;;5107323;28;20108;-64
2023/06/16 11:31:35;;;;;;;9.35;6.32;;;;;;;;;;5092674;28;20077;-64
2023/06/16 11:34:02;;;;;;;12.48;7.80;;;;;;;;;;5092193;28;20028;-64
2023/06/16 11:36:28;;;;;;;13.95;8.90;;;;;;;;;;5092431;28;20090;-64
2023/06/16 11:38:57;;;;;;;12.18;6.75;;;;;;;;;;5092757;28;20031;-65
2023/06/16 11:41:27;;;;;;;10.17;6.57;;;;;;;;;;5092417;28;20028;-65
2023/06/16 11:43:53;;;;;;;;;;;;;;;;;;5092606;28;20445;-65
2023/06/16 11:46:21;;;;;;;7.18;5.47;;;;;;;;;;5092289;28;20363;-65
2023/06/16 11:48:47;;;;;;;7.72;5.78;;;;;;;;;;5091879;28;20489;-65
2023/06/16 11:51:14;;;;;;;9.90;6.32;;;;;;;;;;5095722;28;20070;-65
2023/06/16 11:53:40;;;;;;;9.50;6.40;;;;;;;;;;5096336;28;20081;-62
2023/06/16 11:56:12;;;;;;;17.33;6.30;;;;;;;;;;5096375;28;20424;-63
2023/06/16 11:58:38;;;;;;;10.90;4.95;;;;;;;;;;5096360;28;20040;-63
2023/06/16 12:01:05;;;;;;;6.63;4.20;;;;;;;;;;5096365;28;20094;-62
2023/06/16 12:03:36;;;;;;;5.75;3.85;;;;;;;;;;5095920;28;20030;-65
2023/06/16 12:06:03;;;;;;;7.55;3.70;;;;;;;;;;5096078;28;20378;-67
2023/06/16 12:08:45;;;;;;;4.78;2.88;;;;;;;;;;5095935;28;20051;-64
2023/06/16 12:11:15;;;;;;;3.95;2.80;;;;;;;;;;5095881;28;20489;-64
2023/06/16 12:13:40;;;;;;;;;;;;;;;;;;5096575;28;20078;-64
2023/06/16 12:16:08;;;;;;;5.95;2.50;;;;;;;;;;5095776;28;20381;-65
2023/06/16 12:18:34;;;;;;;3.95;2.28;;;;;;;;;;5095661;28;20051;-64
2023/06/16 12:21:16;;;;;;;4.03;2.42;;;;;;;;;;5095758;28;20024;-64
2023/06/16 12:23:53;;;;;;;4.68;2.75;;;;;;;;;;5115388;28;20027;-65
2023/06/16 12:26:32;;;;;;;4.28;2.70;;;;;;;;;;5116091;28;20536;-65
2023/06/16 12:28:59;;;;;;;8.30;3.47;;;;;;;;;;5112085;28;20446;-65
2023/06/16 12:31:26;;;;;;;5.97;2.70;;;;;;;;;;5095693;28;20107;-64
2023/06/16 12:33:53;;;;;;;3.63;2.90;;;;;;;;;;5095350;28;20039;-64
2023/06/16 12:36:18;;;;;;;5.63;2.80;;;;;;;;;;5095436;28;20378;-64
2023/06/16 12:38:44;;;;;;;4.43;3.10;;;;;;;;;;5095827;28;20035;-64
2023/06/16 12:41:14;;;;;;;4.35;2.70;;;;;;;;;;5095315;28;20029;-65
2023/06/16 12:44:05;;;;;;;4.57;2.92;;;;;;;;;;5095258;28;20066;-64
2023/06/16 12:46:31;;;;;;;7.20;5.10;;;;;;;;;;5089864;28;20031;-64
2023/06/16 12:48:56;;;;;;;7.70;5.63;;;;;;;;;;5095081;28;20090;-64
2023/06/16 12:51:22;;;;;;;6.43;5.43;;;;;;;;;;5095391;28;20020;-64
2023/06/16 12:53:47;;;;;;;7.13;4.78;;;;;;;;;;5095297;28;20016;-64
2023/06/16 12:56:14;;;;;;;6.75;5.85;;;;;;;;;;5095192;28;20100;-64
2023/06/16 12:58:40;;;;;;;11.95;9.23;;;;;;;;;;5095359;28;20023;-65
2023/06/16 13:01:14;;;;;;;7.03;6.30;;;;;;;;;;5094596;28;20469;-65
2023/06/16 13:03:46;;;;;;;5.47;4.78;;;;;;;;;;5094775;28;20020;-65
2023/06/16 13:06:18;;;;;;;6.22;5.10;;;;;;;;;;5094941;28;20058;-65
2023/06/16 13:08:43;;;;;;;6.25;5.38;;;;;;;;;;5094688;28;20032;-65
2023/06/16 13:11:09;;;;;;;7.72;5.28;;;;;;;;;;5095024;28;20028;-65
2023/06/16 13:13:35;;;;;;;6.57;5.07;;;;;;;;;;5095204;28;20031;-68
2023/06/16 13:16:00;;;;;;;9.27;7.88;;;;;;;;;;5094685;28;20024;-67
2023/06/16 13:18:26;;;;;;;8.13;6.50;;;;;;;;;;5094970;28;20461;-68
2023/06/16 13:20:51;;;;;;;7.10;6.38;;;;;;;;;;5094925;28;20030;-64
2023/06/16 13:23:17;;;;;;;7.93;5.72;;;;;;;;;;5110858;28;20038;-65
2023/06/16 13:25:43;;;;;;;6.82;5.88;;;;;;;;;;5114905;28;20377;-65
2023/06/16 13:28:08;;;;;;;8.95;5.93;;;;;;;;;;5115001;28;20138;-66
2023/06/16 13:30:34;;;;;;;6.70;5.30;;;;;;;;;;5097166;28;20546;-65
2023/06/16 13:32:59;;;;;;;7.50;5.55;;;;;;;;;;5094861;28;20027;-67
2023/06/16 13:35:24;;;;;;;8.32;5.05;;;;;;;;;;5094406;28;20023;-65
2023/06/16 13:37:50;;;;;;;8.32;4.80;;;;;;;;;;5094354;28;20028;-65
2023/06/16 13:40:16;;;;;;;5.90;4.40;;;;;;;;;;5094409;28;20063;-66
2023/06/16 13:42:42;;;;;;;8.02;4.70;;;;;;;;;;5094226;28;20106;-66
2023/06/16 13:45:07;;;;;;;6.30;4.28;;;;;;;;;;5093294;28;20491;-65
2023/06/16 13:47:33;;;;;;;5.32;4.60;;;;;;;;;;5094260;28;20101;-66
2023/06/16 13:49:58;;;;;;;9.98;4.75;;;;;;;;;;5094523;28;20140;-66
2023/06/16 13:52:24;;;;;;;9.02;4.57;;;;;;;;;;5094259;28;20107;-67
2023/06/16 13:54:50;;;;;;;5.22;4.35;;;;;;;;;;5093118;28;20385;-66
2023/06/16 13:57:15;;;;;;;8.68;4.88;;;;;;;;;;5094314;28;20032;-67
2023/06/16 13:59:41;;;;;;;6.50;4.53;;;;;;;;;;5094018;28;20021;-66
2023/06/16 14:02:06;;;;;;;6.10;4.60;;;;;;;;;;5094194;28;20033;-66
2023/06/16 14:04:32;;;;;;;6.20;4.45;;;;;;;;;;5094036;28;20428;-67
2023/06/16 14:06:57;;;;;;;6.22;4.45;;;;;;;;;;5093949;28;20373;-64
2023/06/16 14:09:23;;;;;;;10.35;4.43;;;;;;;;;;5093950;28;20357;-64
2023/06/16 14:11:48;;;;;;;4.90;3.80;;;;;;;;;;5093937;28;20460;-66
2023/06/16 14:14:14;;;;;;;10.25;4.30;;;;;;;;;;5093244;28;20032;-65
2023/06/16 14:16:39;;;;;;;5.88;4.18;;;;;;;;;;5093798;28;20052;-64
2023/06/16 14:19:04;;;;;;;7.07;4.55;;;;;;;;;;5093388;28;20123;-64
2023/06/16 14:21:31;;;;;;;6.25;4.35;;;;;;;;;;5093763;28;20099;-64
2023/06/16 14:23:57;;;;;;;7.68;5.50;;;;;;;;;;5093546;28;20035;-64
2023/06/16 14:26:22;;;;;;;14.60;5.93;;;;;;;;;;5092387;28;20024;-64
2023/06/16 14:28:48;;;;;;;6.97;4.35;;;;;;;;;;5091426;28;20077;-64
2023/06/16 14:31:14;;;;;;;9.30;4.45;;;;;;;;;;5092861;28;20024;-68
2023/06/16 14:33:39;;;;;;;7.40;4.20;;;;;;;;;;5093550;28;20392;-64
2023/06/16 14:36:05;;;;;;;5.20;4.13;;;;;;;;;;5092131;28;20028;-65
2023/06/16 14:38:30;;;;;;;7.45;4.95;;;;;;;;;;5092416;28;20016;-68
2023/06/16 14:40:56;;;;;;;9.02;5.20;;;;;;;;;;5093786;28;20427;-67